Time,TemperatureF,DewpointF,PressureIn,WindDirection,WindDirectionDegrees,WindSpeedMPH,WindSpeedGustMPH,Humidity,HourlyPrecipIn,Conditions,Clouds,dailyrainin,SoftwareType,DateUTC
2013-01-26 00:00:00,36.3,34.2,30.30,WNW,283,0.0,3.6,92,-99.99,,,0.00,VWS V14.01,2013-01-26 05:00:00,
2013-01-26 00:30:00,35.8,33.7,30.30,WNW,283,0.0,4.0,92,-99.99,,,0.00,VWS V14.01,2013-01-26 05:30:00,
2013-01-26 01:00:00,35.4,33.3,30.33,WNW,285,0.0,3.1,92,-99.99,,,0.00,VWS V14.01,2013-01-26 06:00:00,
2013-01-26 01:30:00,35.2,33.2,30.30,WNW,289,0.0,4.5,92,-99.99,,,0.00,VWS V14.01,2013-01-26 06:30:00,
2013-01-26 02:00:00,34.9,32.8,30.33,ENE,64,0.0,4.9,92,-99.99,,,0.00,VWS V14.01,2013-01-26 07:00:00,
2013-01-26 02:30:00,34.9,33.1,30.33,ENE,64,0.0,4.0,93,-99.99,,,0.00,VWS V14.01,2013-01-26 07:30:00,
2013-01-26 03:00:00,34.3,32.5,30.33,ENE,59,0.0,4.0,93,-99.99,,,0.00,VWS V14.01,2013-01-26 08:00:00,
2013-01-26 03:30:00,33.6,31.8,30.33,NNE,20,0.0,6.3,93,-99.99,,,0.00,VWS V14.01,2013-01-26 08:30:00,
2013-01-26 04:00:00,33.1,31.3,30.33,NE,56,0.0,6.9,93,-99.99,,,0.00,VWS V14.01,2013-01-26 09:00:00,
2013-01-26 04:30:00,32.7,31.2,30.33,NNE,21,0.0,7.4,94,-99.99,,,0.00,VWS V14.01,2013-01-26 09:30:00,
2013-01-26 05:00:00,32.5,31.0,30.36,NE,48,4.0,7.8,94,-99.99,,,0.00,VWS V14.01,2013-01-26 10:00:00,
2013-01-26 05:30:00,32.0,30.5,30.36,NNE,18,4.5,7.4,94,-99.99,,,0.00,VWS V14.01,2013-01-26 10:30:00,
2013-01-26 06:00:00,31.5,29.9,30.36,ENE,74,4.9,6.9,94,-99.99,,,0.00,VWS V14.01,2013-01-26 11:00:00,
2013-01-26 06:30:00,31.3,29.8,30.36,ENE,73,2.7,7.4,94,-99.99,,,0.00,VWS V14.01,2013-01-26 11:30:00,
2013-01-26 07:00:00,31.3,30.0,30.36,ENE,59,0.0,6.3,95,-99.99,,,0.00,VWS V14.01,2013-01-26 12:00:00,
2013-01-26 07:30:00,30.9,29.7,30.36,ENE,64,0.0,8.3,95,-99.99,,,0.00,VWS V14.01,2013-01-26 12:30:00,
2013-01-26 08:00:00,30.7,29.5,30.36,NE,41,0.0,6.9,95,-99.99,,,0.00,VWS V14.01,2013-01-26 13:00:00,
2013-01-26 08:30:00,31.3,30.3,30.36,North,10,4.0,6.3,96,-99.99,,,0.00,VWS V14.01,2013-01-26 13:30:00,
2013-01-26 09:00:00,31.5,30.5,30.39,NE,51,0.0,6.9,96,-99.99,,,0.00,VWS V14.01,2013-01-26 14:00:00,
2013-01-26 09:30:00,32.2,31.2,30.39,ENE,72,0.0,6.9,96,-99.99,,,0.00,VWS V14.01,2013-01-26 14:30:00,
2013-01-26 10:00:00,32.7,31.7,30.39,ENE,62,5.4,6.7,96,-99.99,,,0.00,VWS V14.01,2013-01-26 15:00:00,
2013-01-26 10:30:00,33.3,32.2,30.39,NE,40,2.7,9.2,96,-99.99,,,0.00,VWS V14.01,2013-01-26 15:30:00,
2013-01-26 11:00:00,35.1,34.3,30.42,ENE,69,0.0,8.7,97,-99.99,,,0.00,VWS V14.01,2013-01-26 16:00:00,
2013-01-26 11:30:00,36.3,35.5,30.42,NE,46,0.0,9.2,97,-99.99,,,0.00,VWS V14.01,2013-01-26 16:30:00,
2013-01-26 12:00:00,38.1,37.1,30.42,East,92,5.4,10.5,96,-99.99,,,0.00,VWS V14.01,2013-01-26 17:00:00,
2013-01-26 12:30:00,38.7,34.8,30.42,ENE,58,0.0,9.6,86,-99.99,,,0.00,VWS V14.01,2013-01-26 17:30:00,
2013-01-26 13:00:00,38.5,25.0,30.42,NW,305,0.0,9.6,58,-99.99,,,0.00,VWS V14.01,2013-01-26 18:00:00,
2013-01-26 13:30:00,39.9,22.3,30.39,NNE,14,0.0,11.0,49,-99.99,,,0.00,VWS V14.01,2013-01-26 18:30:00,
2013-01-26 14:00:00,40.3,22.2,30.39,WNW,286,0.0,8.3,48,-99.99,,,0.00,VWS V14.01,2013-01-26 19:00:00,
2013-01-26 14:30:00,41.0,23.3,30.39,ENE,71,0.0,8.3,49,-99.99,,,0.00,VWS V14.01,2013-01-26 19:30:00,
2013-01-26 15:00:00,44.1,24.6,30.39,NNE,18,0.0,7.4,46,-99.99,,,0.00,VWS V14.01,2013-01-26 20:00:00,
2013-01-26 15:30:00,44.4,22.8,30.39,NE,47,0.0,6.7,42,-99.99,,,0.00,VWS V14.01,2013-01-26 20:30:00,
2013-01-26 16:00:00,45.0,22.7,30.39,WNW,288,0.0,7.4,41,-99.99,,,0.00,VWS V14.01,2013-01-26 21:00:00,
2013-01-26 16:30:00,44.1,21.9,30.39,ENE,68,5.4,7.4,41,-99.99,,,0.00,VWS V14.01,2013-01-26 21:30:00,
2013-01-26 17:00:00,41.9,21.6,30.39,NNE,27,3.1,7.8,44,-99.99,,,0.00,VWS V14.01,2013-01-26 22:00:00,
2013-01-26 17:30:00,41.0,21.3,30.39,West,269,0.0,6.3,45,-99.99,,,0.00,VWS V14.01,2013-01-26 22:30:00,
2013-01-26 18:00:00,39.6,21.5,30.39,NE,34,0.0,5.4,48,-99.99,,,0.00,VWS V14.01,2013-01-26 23:00:00,
2013-01-26 18:30:00,37.6,20.6,30.42,NE,34,0.0,0.0,50,-99.99,,,0.00,VWS V14.01,2013-01-26 23:30:00,
2013-01-26 19:00:00,36.0,20.5,30.42,NE,35,0.0,0.0,53,-99.99,,,0.00,VWS V14.01,2013-01-27 00:00:00,
2013-01-26 19:30:00,34.9,20.8,30.42,NE,54,0.0,3.6,56,-99.99,,,0.00,VWS V14.01,2013-01-27 00:30:00,
2013-01-26 20:00:00,34.9,22.0,30.42,ENE,73,0.0,4.0,59,-99.99,,,0.00,VWS V14.01,2013-01-27 01:00:00,
2013-01-26 20:30:00,34.5,22.5,30.42,ENE,77,0.0,6.7,61,-99.99,,,0.00,VWS V14.01,2013-01-27 01:30:00,
2013-01-26 21:00:00,34.2,22.9,30.42,ENE,74,4.0,5.4,63,-99.99,,,0.00,VWS V14.01,2013-01-27 02:00:00,
2013-01-26 21:30:00,34.0,23.5,30.45,East,98,2.7,4.9,65,-99.99,,,0.00,VWS V14.01,2013-01-27 02:30:00,
2013-01-26 22:00:00,33.3,23.5,30.45,ENE,76,3.1,6.3,67,-99.99,,,0.00,VWS V14.01,2013-01-27 03:00:00,
2013-01-26 22:30:00,33.6,24.9,30.45,East,84,0.0,6.9,70,-99.99,,,0.00,VWS V14.01,2013-01-27 03:30:00,
2013-01-26 23:00:00,32.9,24.5,30.45,East,93,3.1,5.8,71,-99.99,,,0.00,VWS V14.01,2013-01-27 04:00:00,
2013-01-26 23:30:00,33.4,25.4,30.45,East,95,0.0,6.3,72,-99.99,,,0.00,VWS V14.01,2013-01-27 04:30:00,